sensor_id;sensor_type;location;lat;lon;timestamp;temperature;humidity
18777;DHT22;9517;51.174;4.160;2023-02-15T00:00:44;3.90;99.90
18777;DHT22;9517;51.174;4.160;2023-02-15T00:03:16;3.80;99.90
18777;DHT22;9517;51.174;4.160;2023-02-15T00:05:45;3.90;99.90
18777;DHT22;9517;51.174;4.160;2023-02-15T00:08:12;3.90;99.90
18777;DHT22;9517;51.174;4.160;2023-02-15T00:10:43;3.80;99.90
18777;DHT22;9517;51.174;4.160;2023-02-15T00:13:10;3.80;99.90
18777;DHT22;9517;51.174;4.160;2023-02-15T00:15:37;3.90;99.90
18777;DHT22;9517;51.174;4.160;2023-02-15T00:18:05;4.00;99.90
18777;DHT22;9517;51.174;4.160;2023-02-15T00:20:42;4.00;99.90
18777;DHT22;9517;51.174;4.160;2023-02-15T00:23:10;4.00;99.90
18777;DHT22;9517;51.174;4.160;2023-02-15T00:25:38;4.00;99.90
18777;DHT22;9517;51.174;4.160;2023-02-15T00:28:05;4.00;99.90
18777;DHT22;9517;51.174;4.160;2023-02-15T00:30:33;4.00;99.90
18777;DHT22;9517;51.174;4.160;2023-02-15T00:33:00;3.90;99.90
18777;DHT22;9517;51.174;4.160;2023-02-15T00:35:29;3.90;99.90
18777;DHT22;9517;51.174;4.160;2023-02-15T00:38:09;3.80;99.90
18777;DHT22;9517;51.174;4.160;2023-02-15T00:40:39;3.80;99.90
18777;DHT22;9517;51.174;4.160;2023-02-15T00:43:06;3.70;99.90
18777;DHT22;9517;51.174;4.160;2023-02-15T00:45:34;3.60;99.90
18777;DHT22;9517;51.174;4.160;2023-02-15T00:48:04;3.50;99.90
18777;DHT22;9517;51.174;4.160;2023-02-15T00:50:37;3.50;99.90
18777;DHT22;9517;51.174;4.160;2023-02-15T00:53:10;3.30;99.90
18777;DHT22;9517;51.174;4.160;2023-02-15T00:55:37;3.30;99.90
18777;DHT22;9517;51.174;4.160;2023-02-15T00:58:06;3.30;99.90
18777;DHT22;9517;51.174;4.160;2023-02-15T01:00:34;3.40;99.90
18777;DHT22;9517;51.174;4.160;2023-02-15T01:03:05;3.40;99.90
18777;DHT22;9517;51.174;4.160;2023-02-15T01:05:33;3.30;99.90
18777;DHT22;9517;51.174;4.160;2023-02-15T01:08:00;3.40;99.90
18777;DHT22;9517;51.174;4.160;2023-02-15T01:10:33;3.40;99.90
18777;DHT22;9517;51.174;4.160;2023-02-15T01:13:01;3.40;99.90
18777;DHT22;9517;51.174;4.160;2023-02-15T01:15:31;3.30;99.90
18777;DHT22;9517;51.174;4.160;2023-02-15T01:18:03;3.30;99.90
18777;DHT22;9517;51.174;4.160;2023-02-15T01:20:34;3.20;99.90
18777;DHT22;9517;51.174;4.160;2023-02-15T01:23:07;3.20;99.90
18777;DHT22;9517;51.174;4.160;2023-02-15T01:25:39;3.10;99.90
18777;DHT22;9517;51.174;4.160;2023-02-15T01:28:07;3.00;99.90
18777;DHT22;9517;51.174;4.160;2023-02-15T01:30:40;3.00;99.90
18777;DHT22;9517;51.174;4.160;2023-02-15T01:33:07;3.00;99.90
18777;DHT22;9517;51.174;4.160;2023-02-15T01:35:43;3.00;99.90
18777;DHT22;9517;51.174;4.160;2023-02-15T01:38:13;3.10;99.90
18777;DHT22;9517;51.174;4.160;2023-02-15T01:40:44;3.20;99.90
18777;DHT22;9517;51.174;4.160;2023-02-15T01:43:12;3.30;99.90
18777;DHT22;9517;51.174;4.160;2023-02-15T01:45:44;3.40;99.90
18777;DHT22;9517;51.174;4.160;2023-02-15T01:48:21;3.30;99.90
18777;DHT22;9517;51.174;4.160;2023-02-15T01:50:55;3.20;99.90
18777;DHT22;9517;51.174;4.160;2023-02-15T01:53:26;3.20;99.90
18777;DHT22;9517;51.174;4.160;2023-02-15T01:55:59;3.20;99.90
18777;DHT22;9517;51.174;4.160;2023-02-15T01:58:28;3.10;99.90
18777;DHT22;9517;51.174;4.160;2023-02-15T02:01:01;3.20;99.90
18777;DHT22;9517;51.174;4.160;2023-02-15T02:03:38;3.30;99.90
18777;DHT22;9517;51.174;4.160;2023-02-15T02:06:10;3.20;99.90
18777;DHT22;9517;51.174;4.160;2023-02-15T02:08:43;3.00;99.90
18777;DHT22;9517;51.174;4.160;2023-02-15T02:11:15;2.90;99.90
18777;DHT22;9517;51.174;4.160;2023-02-15T02:13:46;2.90;99.90
18777;DHT22;9517;51.174;4.160;2023-02-15T02:16:22;2.90;99.90
18777;DHT22;9517;51.174;4.160;2023-02-15T02:19:01;2.90;99.90
18777;DHT22;9517;51.174;4.160;2023-02-15T02:24:57;2.80;99.90
18777;DHT22;9517;51.174;4.160;2023-02-15T02:27:41;2.70;99.90
18777;DHT22;9517;51.174;4.160;2023-02-15T02:30:49;2.70;99.90
18777;DHT22;9517;51.174;4.160;2023-02-15T02:33:40;2.70;99.90
18777;DHT22;9517;51.174;4.160;2023-02-15T02:36:15;2.80;99.90
18777;DHT22;9517;51.174;4.160;2023-02-15T02:38:57;2.90;99.90
18777;DHT22;9517;51.174;4.160;2023-02-15T02:41:37;2.90;99.90
18777;DHT22;9517;51.174;4.160;2023-02-15T02:44:12;3.00;99.90
18777;DHT22;9517;51.174;4.160;2023-02-15T02:46:48;3.10;99.90
18777;DHT22;9517;51.174;4.160;2023-02-15T02:49:31;3.00;99.90
18777;DHT22;9517;51.174;4.160;2023-02-15T02:51:59;3.00;99.90
18777;DHT22;9517;51.174;4.160;2023-02-15T02:54:28;3.00;99.90
18777;DHT22;9517;51.174;4.160;2023-02-15T02:57:00;3.00;99.90
18777;DHT22;9517;51.174;4.160;2023-02-15T02:59:34;2.90;99.90
18777;DHT22;9517;51.174;4.160;2023-02-15T03:02:11;3.00;99.90
18777;DHT22;9517;51.174;4.160;2023-02-15T03:04:46;3.10;99.90
18777;DHT22;9517;51.174;4.160;2023-02-15T03:07:17;3.10;99.90
18777;DHT22;9517;51.174;4.160;2023-02-15T03:09:51;3.10;99.90
18777;DHT22;9517;51.174;4.160;2023-02-15T03:12:21;3.10;99.90
18777;DHT22;9517;51.174;4.160;2023-02-15T03:14:54;3.10;99.90
18777;DHT22;9517;51.174;4.160;2023-02-15T03:17:27;3.10;99.90
18777;DHT22;9517;51.174;4.160;2023-02-15T03:20:05;3.10;99.90
18777;DHT22;9517;51.174;4.160;2023-02-15T03:22:41;3.10;99.90
18777;DHT22;9517;51.174;4.160;2023-02-15T03:25:18;3.00;99.90
18777;DHT22;9517;51.174;4.160;2023-02-15T03:27:53;3.00;99.90
18777;DHT22;9517;51.174;4.160;2023-02-15T03:30:22;3.00;99.90
18777;DHT22;9517;51.174;4.160;2023-02-15T03:32:53;3.00;99.90
18777;DHT22;9517;51.174;4.160;2023-02-15T03:35:33;3.10;99.90
18777;DHT22;9517;51.174;4.160;2023-02-15T03:38:07;3.10;99.90
18777;DHT22;9517;51.174;4.160;2023-02-15T03:40:37;3.20;99.90
18777;DHT22;9517;51.174;4.160;2023-02-15T03:43:32;3.10;99.90
18777;DHT22;9517;51.174;4.160;2023-02-15T03:46:08;3.20;99.90
18777;DHT22;9517;51.174;4.160;2023-02-15T03:48:53;3.10;99.90
18777;DHT22;9517;51.174;4.160;2023-02-15T03:51:29;3.20;99.90
18777;DHT22;9517;51.174;4.160;2023-02-15T03:54:06;3.10;99.90
18777;DHT22;9517;51.174;4.160;2023-02-15T03:56:59;3.10;99.90
18777;DHT22;9517;51.174;4.160;2023-02-15T03:59:41;3.10;99.90
18777;DHT22;9517;51.174;4.160;2023-02-15T04:02:30;3.00;99.90
18777;DHT22;9517;51.174;4.160;2023-02-15T04:05:00;2.80;99.90
18777;DHT22;9517;51.174;4.160;2023-02-15T04:07:29;2.80;99.90
18777;DHT22;9517;51.174;4.160;2023-02-15T04:09:56;2.80;99.90
18777;DHT22;9517;51.174;4.160;2023-02-15T04:12:40;2.80;99.90
18777;DHT22;9517;51.174;4.160;2023-02-15T04:15:12;2.70;99.90
18777;DHT22;9517;51.174;4.160;2023-02-15T04:17:56;2.80;99.90
18777;DHT22;9517;51.174;4.160;2023-02-15T04:20:24;2.90;99.90
18777;DHT22;9517;51.174;4.160;2023-02-15T04:23:10;2.80;99.90
18777;DHT22;9517;51.174;4.160;2023-02-15T04:25:54;2.80;99.90
18777;DHT22;9517;51.174;4.160;2023-02-15T04:28:21;2.70;99.90
18777;DHT22;9517;51.174;4.160;2023-02-15T04:30:49;2.80;99.90
18777;DHT22;9517;51.174;4.160;2023-02-15T04:33:16;2.80;99.90
18777;DHT22;9517;51.174;4.160;2023-02-15T04:35:46;2.80;99.90
18777;DHT22;9517;51.174;4.160;2023-02-15T04:38:14;2.80;99.90
18777;DHT22;9517;51.174;4.160;2023-02-15T04:40:41;2.80;99.90
18777;DHT22;9517;51.174;4.160;2023-02-15T04:43:09;2.80;99.90
18777;DHT22;9517;51.174;4.160;2023-02-15T04:45:37;2.80;99.90
18777;DHT22;9517;51.174;4.160;2023-02-15T04:48:04;2.80;99.90
18777;DHT22;9517;51.174;4.160;2023-02-15T04:50:32;2.80;99.90
18777;DHT22;9517;51.174;4.160;2023-02-15T04:53:02;2.80;99.90
18777;DHT22;9517;51.174;4.160;2023-02-15T04:55:31;2.80;99.90
18777;DHT22;9517;51.174;4.160;2023-02-15T04:57:58;2.80;99.90
18777;DHT22;9517;51.174;4.160;2023-02-15T05:00:26;2.80;99.90
18777;DHT22;9517;51.174;4.160;2023-02-15T05:02:54;2.80;99.90
18777;DHT22;9517;51.174;4.160;2023-02-15T05:05:21;2.70;99.90
18777;DHT22;9517;51.174;4.160;2023-02-15T05:07:49;2.70;99.90
18777;DHT22;9517;51.174;4.160;2023-02-15T05:10:17;2.70;99.90
18777;DHT22;9517;51.174;4.160;2023-02-15T05:12:45;2.70;99.90
18777;DHT22;9517;51.174;4.160;2023-02-15T05:15:13;2.70;99.90
18777;DHT22;9517;51.174;4.160;2023-02-15T05:17:40;2.70;99.90
18777;DHT22;9517;51.174;4.160;2023-02-15T05:20:08;2.70;99.90
18777;DHT22;9517;51.174;4.160;2023-02-15T05:22:39;2.70;99.90
18777;DHT22;9517;51.174;4.160;2023-02-15T05:25:08;2.70;99.90
18777;DHT22;9517;51.174;4.160;2023-02-15T05:27:54;2.60;99.90
18777;DHT22;9517;51.174;4.160;2023-02-15T05:30:39;2.50;99.90
18777;DHT22;9517;51.174;4.160;2023-02-15T05:33:07;2.40;99.90
18777;DHT22;9517;51.174;4.160;2023-02-15T05:35:34;2.40;99.90
18777;DHT22;9517;51.174;4.160;2023-02-15T05:38:02;2.30;99.90
18777;DHT22;9517;51.174;4.160;2023-02-15T05:40:32;2.20;99.90
18777;DHT22;9517;51.174;4.160;2023-02-15T05:43:01;2.10;99.90
18777;DHT22;9517;51.174;4.160;2023-02-15T05:45:29;1.90;99.90
18777;DHT22;9517;51.174;4.160;2023-02-15T05:47:56;1.80;99.90
18777;DHT22;9517;51.174;4.160;2023-02-15T05:50:25;1.80;99.90
18777;DHT22;9517;51.174;4.160;2023-02-15T05:52:52;1.90;99.90
18777;DHT22;9517;51.174;4.160;2023-02-15T05:55:20;2.00;99.90
18777;DHT22;9517;51.174;4.160;2023-02-15T05:57:48;2.10;99.90
18777;DHT22;9517;51.174;4.160;2023-02-15T06:00:18;2.10;99.90
18777;DHT22;9517;51.174;4.160;2023-02-15T06:02:45;2.20;99.90
18777;DHT22;9517;51.174;4.160;2023-02-15T06:05:12;2.30;99.90
18777;DHT22;9517;51.174;4.160;2023-02-15T06:07:42;2.30;99.90
18777;DHT22;9517;51.174;4.160;2023-02-15T06:10:09;2.30;99.90
18777;DHT22;9517;51.174;4.160;2023-02-15T06:12:36;2.30;99.90
18777;DHT22;9517;51.174;4.160;2023-02-15T06:15:07;2.30;99.90
18777;DHT22;9517;51.174;4.160;2023-02-15T06:20:12;2.30;99.90
18777;DHT22;9517;51.174;4.160;2023-02-15T06:22:39;2.30;99.90
18777;DHT22;9517;51.174;4.160;2023-02-15T06:25:07;2.30;99.90
18777;DHT22;9517;51.174;4.160;2023-02-15T06:27:36;2.20;99.90
18777;DHT22;9517;51.174;4.160;2023-02-15T06:30:05;2.20;99.90
18777;DHT22;9517;51.174;4.160;2023-02-15T06:32:32;2.20;99.90
18777;DHT22;9517;51.174;4.160;2023-02-15T06:34:59;2.20;99.90
18777;DHT22;9517;51.174;4.160;2023-02-15T06:37:31;2.20;99.90
18777;DHT22;9517;51.174;4.160;2023-02-15T06:39:58;2.30;99.90
18777;DHT22;9517;51.174;4.160;2023-02-15T06:42:25;2.30;99.90
18777;DHT22;9517;51.174;4.160;2023-02-15T06:44:53;2.40;99.90
18777;DHT22;9517;51.174;4.160;2023-02-15T06:47:20;2.60;99.90
18777;DHT22;9517;51.174;4.160;2023-02-15T06:49:47;2.70;99.90
18777;DHT22;9517;51.174;4.160;2023-02-15T06:52:16;2.70;99.90
18777;DHT22;9517;51.174;4.160;2023-02-15T06:54:45;2.70;99.90
18777;DHT22;9517;51.174;4.160;2023-02-15T06:57:12;2.70;99.90
18777;DHT22;9517;51.174;4.160;2023-02-15T06:59:39;2.60;99.90
18777;DHT22;9517;51.174;4.160;2023-02-15T07:02:07;2.50;99.90
18777;DHT22;9517;51.174;4.160;2023-02-15T07:04:35;2.60;99.90
18777;DHT22;9517;51.174;4.160;2023-02-15T07:07:02;2.50;99.90
18777;DHT22;9517;51.174;4.160;2023-02-15T07:09:29;2.50;99.90
18777;DHT22;9517;51.174;4.160;2023-02-15T07:11:58;2.50;99.90
18777;DHT22;9517;51.174;4.160;2023-02-15T07:14:42;2.60;99.90
18777;DHT22;9517;51.174;4.160;2023-02-15T07:17:09;2.70;99.90
18777;DHT22;9517;51.174;4.160;2023-02-15T07:19:36;2.70;99.90
18777;DHT22;9517;51.174;4.160;2023-02-15T07:22:03;2.70;99.90
18777;DHT22;9517;51.174;4.160;2023-02-15T07:24:31;2.80;99.90
18777;DHT22;9517;51.174;4.160;2023-02-15T07:27:00;2.90;99.90
18777;DHT22;9517;51.174;4.160;2023-02-15T07:29:27;2.90;99.90
18777;DHT22;9517;51.174;4.160;2023-02-15T07:31:54;2.80;99.90
18777;DHT22;9517;51.174;4.160;2023-02-15T07:34:21;2.90;99.90
18777;DHT22;9517;51.174;4.160;2023-02-15T07:36:50;3.00;99.90
18777;DHT22;9517;51.174;4.160;2023-02-15T07:39:19;3.10;99.90
18777;DHT22;9517;51.174;4.160;2023-02-15T07:41:46;3.10;99.90
18777;DHT22;9517;51.174;4.160;2023-02-15T07:44:15;3.30;99.90
18777;DHT22;9517;51.174;4.160;2023-02-15T07:46:42;3.30;99.90
18777;DHT22;9517;51.174;4.160;2023-02-15T07:49:09;3.30;99.90
18777;DHT22;9517;51.174;4.160;2023-02-15T07:51:36;3.40;99.90
18777;DHT22;9517;51.174;4.160;2023-02-15T07:54:03;3.40;99.90
18777;DHT22;9517;51.174;4.160;2023-02-15T07:56:30;3.40;99.90
18777;DHT22;9517;51.174;4.160;2023-02-15T07:58:58;3.40;99.90
18777;DHT22;9517;51.174;4.160;2023-02-15T08:01:32;3.50;99.90
18777;DHT22;9517;51.174;4.160;2023-02-15T08:04:01;3.50;99.90
18777;DHT22;9517;51.174;4.160;2023-02-15T08:06:33;3.60;99.90
18777;DHT22;9517;51.174;4.160;2023-02-15T08:09:02;3.70;99.90
18777;DHT22;9517;51.174;4.160;2023-02-15T08:11:31;3.80;99.90
18777;DHT22;9517;51.174;4.160;2023-02-15T08:14:05;4.10;99.90
18777;DHT22;9517;51.174;4.160;2023-02-15T08:16:36;4.20;99.90
18777;DHT22;9517;51.174;4.160;2023-02-15T08:19:05;4.20;99.90
18777;DHT22;9517;51.174;4.160;2023-02-15T08:21:34;4.30;99.90
18777;DHT22;9517;51.174;4.160;2023-02-15T08:24:02;4.40;99.90
18777;DHT22;9517;51.174;4.160;2023-02-15T08:26:30;4.50;99.90
18777;DHT22;9517;51.174;4.160;2023-02-15T08:28:58;4.60;99.90
18777;DHT22;9517;51.174;4.160;2023-02-15T08:31:25;4.80;99.90
18777;DHT22;9517;51.174;4.160;2023-02-15T08:33:56;5.00;99.90
18777;DHT22;9517;51.174;4.160;2023-02-15T08:36:24;5.10;99.90
18777;DHT22;9517;51.174;4.160;2023-02-15T08:38:51;5.30;99.90
18777;DHT22;9517;51.174;4.160;2023-02-15T08:41:20;5.60;99.90
18777;DHT22;9517;51.174;4.160;2023-02-15T08:43:48;5.70;99.90
18777;DHT22;9517;51.174;4.160;2023-02-15T08:46:17;5.90;99.90
18777;DHT22;9517;51.174;4.160;2023-02-15T08:48:44;6.00;99.90
18777;DHT22;9517;51.174;4.160;2023-02-15T08:51:14;6.20;99.90
18777;DHT22;9517;51.174;4.160;2023-02-15T08:53:44;6.40;99.90
18777;DHT22;9517;51.174;4.160;2023-02-15T08:56:11;6.50;99.90
18777;DHT22;9517;51.174;4.160;2023-02-15T08:58:39;6.60;99.90
18777;DHT22;9517;51.174;4.160;2023-02-15T09:01:10;6.70;99.90
18777;DHT22;9517;51.174;4.160;2023-02-15T09:03:37;6.80;99.90
18777;DHT22;9517;51.174;4.160;2023-02-15T09:06:05;6.90;99.90
18777;DHT22;9517;51.174;4.160;2023-02-15T09:08:34;7.00;99.90
18777;DHT22;9517;51.174;4.160;2023-02-15T09:11:06;7.20;99.90
18777;DHT22;9517;51.174;4.160;2023-02-15T09:13:34;7.20;99.90
18777;DHT22;9517;51.174;4.160;2023-02-15T09:16:03;7.30;99.90
18777;DHT22;9517;51.174;4.160;2023-02-15T09:18:32;7.50;99.90
18777;DHT22;9517;51.174;4.160;2023-02-15T09:21:05;7.60;99.90
18777;DHT22;9517;51.174;4.160;2023-02-15T09:23:35;7.60;99.90
18777;DHT22;9517;51.174;4.160;2023-02-15T09:26:06;7.60;99.90
18777;DHT22;9517;51.174;4.160;2023-02-15T09:28:33;7.80;99.90
18777;DHT22;9517;51.174;4.160;2023-02-15T09:31:08;7.90;99.90
18777;DHT22;9517;51.174;4.160;2023-02-15T09:33:36;8.00;99.90
18777;DHT22;9517;51.174;4.160;2023-02-15T09:36:04;8.10;99.90
18777;DHT22;9517;51.174;4.160;2023-02-15T09:38:31;8.10;99.90
18777;DHT22;9517;51.174;4.160;2023-02-15T09:41:18;8.10;99.90
18777;DHT22;9517;51.174;4.160;2023-02-15T09:43:55;8.00;99.90
18777;DHT22;9517;51.174;4.160;2023-02-15T09:46:58;7.80;99.90
18777;DHT22;9517;51.174;4.160;2023-02-15T09:49:33;7.80;99.90
18777;DHT22;9517;51.174;4.160;2023-02-15T09:52:23;7.90;99.90
18777;DHT22;9517;51.174;4.160;2023-02-15T09:55:14;8.00;99.90
18777;DHT22;9517;51.174;4.160;2023-02-15T09:57:53;8.20;99.90
18777;DHT22;9517;51.174;4.160;2023-02-15T10:00:30;8.50;99.90
18777;DHT22;9517;51.174;4.160;2023-02-15T10:03:15;8.70;99.90
18777;DHT22;9517;51.174;4.160;2023-02-15T10:05:57;8.90;99.90
18777;DHT22;9517;51.174;4.160;2023-02-15T10:08:41;9.20;99.90
18777;DHT22;9517;51.174;4.160;2023-02-15T10:11:15;9.30;99.90
18777;DHT22;9517;51.174;4.160;2023-02-15T10:14:20;9.50;99.90
18777;DHT22;9517;51.174;4.160;2023-02-15T10:16:56;9.70;99.90
18777;DHT22;9517;51.174;4.160;2023-02-15T10:19:33;9.60;99.90
18777;DHT22;9517;51.174;4.160;2023-02-15T10:22:14;10.00;99.90
18777;DHT22;9517;51.174;4.160;2023-02-15T10:25:13;10.30;99.90
18777;DHT22;9517;51.174;4.160;2023-02-15T10:27:46;10.30;99.90
18777;DHT22;9517;51.174;4.160;2023-02-15T10:30:16;10.30;99.90
18777;DHT22;9517;51.174;4.160;2023-02-15T10:32:52;10.30;99.90
18777;DHT22;9517;51.174;4.160;2023-02-15T10:35:26;10.40;99.90
18777;DHT22;9517;51.174;4.160;2023-02-15T10:38:08;10.90;99.90
18777;DHT22;9517;51.174;4.160;2023-02-15T10:40:44;11.20;99.90
18777;DHT22;9517;51.174;4.160;2023-02-15T10:43:24;11.50;99.90
18777;DHT22;9517;51.174;4.160;2023-02-15T10:46:00;11.70;99.90
18777;DHT22;9517;51.174;4.160;2023-02-15T10:48:45;11.70;99.90
18777;DHT22;9517;51.174;4.160;2023-02-15T10:51:18;12.10;99.90
18777;DHT22;9517;51.174;4.160;2023-02-15T10:54:05;12.00;99.90
18777;DHT22;9517;51.174;4.160;2023-02-15T10:56:40;11.90;99.90
18777;DHT22;9517;51.174;4.160;2023-02-15T10:59:34;11.70;99.90
18777;DHT22;9517;51.174;4.160;2023-02-15T11:02:12;12.00;99.90
18777;DHT22;9517;51.174;4.160;2023-02-15T11:04:47;12.40;99.90
18777;DHT22;9517;51.174;4.160;2023-02-15T11:07:20;12.50;99.90
18777;DHT22;9517;51.174;4.160;2023-02-15T11:09:50;12.80;99.90
18777;DHT22;9517;51.174;4.160;2023-02-15T11:12:24;13.30;99.90
18777;DHT22;9517;51.174;4.160;2023-02-15T11:14:58;14.10;99.90
18777;DHT22;9517;51.174;4.160;2023-02-15T11:17:35;14.50;99.90
18777;DHT22;9517;51.174;4.160;2023-02-15T11:20:14;15.00;99.90
18777;DHT22;9517;51.174;4.160;2023-02-15T11:23:12;14.80;99.90
18777;DHT22;9517;51.174;4.160;2023-02-15T11:25:43;14.80;99.90
18777;DHT22;9517;51.174;4.160;2023-02-15T11:28:19;14.80;99.90
18777;DHT22;9517;51.174;4.160;2023-02-15T11:30:51;14.70;99.90
18777;DHT22;9517;51.174;4.160;2023-02-15T11:33:30;14.70;99.90
18777;DHT22;9517;51.174;4.160;2023-02-15T11:36:03;14.50;99.90
18777;DHT22;9517;51.174;4.160;2023-02-15T11:38:33;14.50;99.90
18777;DHT22;9517;51.174;4.160;2023-02-15T11:41:06;14.90;99.90
18777;DHT22;9517;51.174;4.160;2023-02-15T11:43:37;15.50;99.90
18777;DHT22;9517;51.174;4.160;2023-02-15T11:46:08;15.80;99.90
18777;DHT22;9517;51.174;4.160;2023-02-15T11:48:37;16.50;99.90
18777;DHT22;9517;51.174;4.160;2023-02-15T11:51:04;16.70;99.90
18777;DHT22;9517;51.174;4.160;2023-02-15T11:53:33;17.80;99.90
18777;DHT22;9517;51.174;4.160;2023-02-15T11:56:01;18.40;99.90
18777;DHT22;9517;51.174;4.160;2023-02-15T11:58:37;18.30;99.90
18777;DHT22;9517;51.174;4.160;2023-02-15T12:01:13;18.90;99.90
18777;DHT22;9517;51.174;4.160;2023-02-15T12:03:47;17.80;99.90
18777;DHT22;9517;51.174;4.160;2023-02-15T12:06:21;17.20;99.90
18777;DHT22;9517;51.174;4.160;2023-02-15T12:08:53;16.10;99.90
18777;DHT22;9517;51.174;4.160;2023-02-15T12:11:25;15.90;99.90
18777;DHT22;9517;51.174;4.160;2023-02-15T12:13:56;16.50;99.90
18777;DHT22;9517;51.174;4.160;2023-02-15T12:16:24;17.40;99.90
18777;DHT22;9517;51.174;4.160;2023-02-15T12:18:55;17.60;99.90
18777;DHT22;9517;51.174;4.160;2023-02-15T12:21:29;17.30;99.90
18777;DHT22;9517;51.174;4.160;2023-02-15T12:24:02;16.90;99.90
18777;DHT22;9517;51.174;4.160;2023-02-15T12:26:32;16.40;99.90
18777;DHT22;9517;51.174;4.160;2023-02-15T12:29:02;16.10;99.90
18777;DHT22;9517;51.174;4.160;2023-02-15T12:31:37;16.10;99.90
18777;DHT22;9517;51.174;4.160;2023-02-15T12:34:13;16.00;99.90
18777;DHT22;9517;51.174;4.160;2023-02-15T12:36:45;16.10;99.90
18777;DHT22;9517;51.174;4.160;2023-02-15T12:39:19;16.60;99.90
18777;DHT22;9517;51.174;4.160;2023-02-15T12:41:59;17.50;99.90
18777;DHT22;9517;51.174;4.160;2023-02-15T12:44:28;17.20;99.90
18777;DHT22;9517;51.174;4.160;2023-02-15T12:47:00;17.40;99.90
18777;DHT22;9517;51.174;4.160;2023-02-15T12:49:30;17.90;99.90
18777;DHT22;9517;51.174;4.160;2023-02-15T12:51:59;18.50;99.90
18777;DHT22;9517;51.174;4.160;2023-02-15T12:54:32;18.50;99.90
18777;DHT22;9517;51.174;4.160;2023-02-15T12:57:24;18.60;99.90
18777;DHT22;9517;51.174;4.160;2023-02-15T12:59:54;18.20;99.90
18777;DHT22;9517;51.174;4.160;2023-02-15T13:02:25;17.90;99.90
18777;DHT22;9517;51.174;4.160;2023-02-15T13:04:55;17.10;99.90
18777;DHT22;9517;51.174;4.160;2023-02-15T13:07:25;16.60;99.90
18777;DHT22;9517;51.174;4.160;2023-02-15T13:09:56;16.00;99.90
18777;DHT22;9517;51.174;4.160;2023-02-15T13:12:25;15.50;99.90
18777;DHT22;9517;51.174;4.160;2023-02-15T13:14:54;14.90;99.90
18777;DHT22;9517;51.174;4.160;2023-02-15T13:17:26;14.70;99.90
18777;DHT22;9517;51.174;4.160;2023-02-15T13:19:59;14.50;99.90
18777;DHT22;9517;51.174;4.160;2023-02-15T13:22:33;14.30;99.90
18777;DHT22;9517;51.174;4.160;2023-02-15T13:25:04;14.20;99.90
18777;DHT22;9517;51.174;4.160;2023-02-15T13:27:38;14.00;99.90
18777;DHT22;9517;51.174;4.160;2023-02-15T13:30:17;14.20;99.90
18777;DHT22;9517;51.174;4.160;2023-02-15T13:32:49;14.30;99.90
18777;DHT22;9517;51.174;4.160;2023-02-15T13:35:20;15.20;99.90
18777;DHT22;9517;51.174;4.160;2023-02-15T13:38:03;15.70;99.90
18777;DHT22;9517;51.174;4.160;2023-02-15T13:40:37;16.60;99.90
18777;DHT22;9517;51.174;4.160;2023-02-15T13:43:18;16.70;99.90
18777;DHT22;9517;51.174;4.160;2023-02-15T13:45:59;16.40;99.90
18777;DHT22;9517;51.174;4.160;2023-02-15T13:48:34;16.20;99.90
18777;DHT22;9517;51.174;4.160;2023-02-15T13:51:15;16.20;99.90
18777;DHT22;9517;51.174;4.160;2023-02-15T13:54:11;17.40;99.90
18777;DHT22;9517;51.174;4.160;2023-02-15T13:56:56;18.70;99.90
18777;DHT22;9517;51.174;4.160;2023-02-15T13:59:46;18.90;99.90
18777;DHT22;9517;51.174;4.160;2023-02-15T14:02:46;18.60;99.90
18777;DHT22;9517;51.174;4.160;2023-02-15T14:05:29;17.70;99.90
18777;DHT22;9517;51.174;4.160;2023-02-15T14:08:11;17.70;99.90
18777;DHT22;9517;51.174;4.160;2023-02-15T14:10:53;17.50;99.90
18777;DHT22;9517;51.174;4.160;2023-02-15T14:13:52;17.30;99.90
18777;DHT22;9517;51.174;4.160;2023-02-15T14:16:29;17.00;99.90
18777;DHT22;9517;51.174;4.160;2023-02-15T14:19:05;16.90;99.90
18777;DHT22;9517;51.174;4.160;2023-02-15T14:21:42;16.90;99.90
18777;DHT22;9517;51.174;4.160;2023-02-15T14:24:21;17.30;99.90
18777;DHT22;9517;51.174;4.160;2023-02-15T14:26:57;17.40;99.90
18777;DHT22;9517;51.174;4.160;2023-02-15T14:29:41;17.80;99.90
18777;DHT22;9517;51.174;4.160;2023-02-15T14:32:12;17.90;99.90
18777;DHT22;9517;51.174;4.160;2023-02-15T14:34:46;17.60;99.90
18777;DHT22;9517;51.174;4.160;2023-02-15T14:37:21;18.00;99.90
18777;DHT22;9517;51.174;4.160;2023-02-15T14:39:56;18.30;99.90
18777;DHT22;9517;51.174;4.160;2023-02-15T14:42:48;18.00;99.90
18777;DHT22;9517;51.174;4.160;2023-02-15T14:45:22;18.00;99.90
18777;DHT22;9517;51.174;4.160;2023-02-15T14:48:01;17.90;99.90
18777;DHT22;9517;51.174;4.160;2023-02-15T14:50:45;17.20;99.90
18777;DHT22;9517;51.174;4.160;2023-02-15T14:53:34;17.20;99.90
18777;DHT22;9517;51.174;4.160;2023-02-15T14:56:24;17.10;99.90
18777;DHT22;9517;51.174;4.160;2023-02-15T14:58:56;16.90;99.90
18777;DHT22;9517;51.174;4.160;2023-02-15T15:01:26;17.00;99.90
18777;DHT22;9517;51.174;4.160;2023-02-15T15:03:57;16.70;99.90
18777;DHT22;9517;51.174;4.160;2023-02-15T15:06:27;16.60;99.90
18777;DHT22;9517;51.174;4.160;2023-02-15T15:08:58;16.50;99.90
18777;DHT22;9517;51.174;4.160;2023-02-15T15:11:44;16.80;99.90
18777;DHT22;9517;51.174;4.160;2023-02-15T15:14:41;16.90;99.90
18777;DHT22;9517;51.174;4.160;2023-02-15T15:17:12;16.30;99.90
18777;DHT22;9517;51.174;4.160;2023-02-15T15:20:10;16.00;99.90
18777;DHT22;9517;51.174;4.160;2023-02-15T15:22:40;15.60;99.90
18777;DHT22;9517;51.174;4.160;2023-02-15T15:25:12;15.40;99.90
18777;DHT22;9517;51.174;4.160;2023-02-15T15:28:04;15.30;99.90
18777;DHT22;9517;51.174;4.160;2023-02-15T15:30:49;15.00;99.90
18777;DHT22;9517;51.174;4.160;2023-02-15T15:36:40;14.80;99.90
18777;DHT22;9517;51.174;4.160;2023-02-15T15:39:27;14.80;99.90
18777;DHT22;9517;51.174;4.160;2023-02-15T15:42:07;14.70;99.90
18777;DHT22;9517;51.174;4.160;2023-02-15T15:47:58;14.10;99.90
18777;DHT22;9517;51.174;4.160;2023-02-15T15:50:28;13.90;99.90
18777;DHT22;9517;51.174;4.160;2023-02-15T15:52:57;13.70;99.90
18777;DHT22;9517;51.174;4.160;2023-02-15T15:55:27;13.50;99.90
18777;DHT22;9517;51.174;4.160;2023-02-15T15:57:57;13.50;99.90
18777;DHT22;9517;51.174;4.160;2023-02-15T16:00:34;13.40;99.90
18777;DHT22;9517;51.174;4.160;2023-02-15T16:03:02;13.40;99.90
18777;DHT22;9517;51.174;4.160;2023-02-15T16:05:35;13.40;99.90
18777;DHT22;9517;51.174;4.160;2023-02-15T16:08:03;13.30;99.90
18777;DHT22;9517;51.174;4.160;2023-02-15T16:10:31;13.20;99.90
18777;DHT22;9517;51.174;4.160;2023-02-15T16:13:00;13.00;99.90
18777;DHT22;9517;51.174;4.160;2023-02-15T16:15:35;12.90;99.90
18777;DHT22;9517;51.174;4.160;2023-02-15T16:18:02;13.00;99.90
18777;DHT22;9517;51.174;4.160;2023-02-15T16:20:32;12.80;99.90
18777;DHT22;9517;51.174;4.160;2023-02-15T16:23:12;12.70;99.90
18777;DHT22;9517;51.174;4.160;2023-02-15T16:25:50;12.50;99.90
18777;DHT22;9517;51.174;4.160;2023-02-15T16:28:20;12.40;99.90
18777;DHT22;9517;51.174;4.160;2023-02-15T16:31:05;12.30;99.90
18777;DHT22;9517;51.174;4.160;2023-02-15T16:33:37;12.30;99.90
18777;DHT22;9517;51.174;4.160;2023-02-15T16:36:06;12.10;99.90
18777;DHT22;9517;51.174;4.160;2023-02-15T16:39:06;12.00;99.90
18777;DHT22;9517;51.174;4.160;2023-02-15T16:41:34;11.90;99.90
18777;DHT22;9517;51.174;4.160;2023-02-15T16:44:06;11.80;99.90
18777;DHT22;9517;51.174;4.160;2023-02-15T16:46:38;11.80;99.90